sensor_id;sensor_type;location;lat;lon;timestamp;temperature;humidity
32877;DHT22;19226;51.600;8.034;2023-04-03T00:01:08;4.50;99.90
32877;DHT22;19226;51.600;8.034;2023-04-03T00:03:53;4.50;99.90
32877;DHT22;19226;51.600;8.034;2023-04-03T00:06:39;4.40;99.90
32877;DHT22;19226;51.600;8.034;2023-04-03T00:09:23;4.30;99.90
32877;DHT22;19226;51.600;8.034;2023-04-03T00:12:08;4.30;99.90
32877;DHT22;19226;51.600;8.034;2023-04-03T00:14:53;4.30;99.90
32877;DHT22;19226;51.600;8.034;2023-04-03T00:17:40;4.30;99.90
32877;DHT22;19226;51.600;8.034;2023-04-03T00:20:25;4.20;99.90
32877;DHT22;19226;51.600;8.034;2023-04-03T00:23:10;4.20;99.90
32877;DHT22;19226;51.600;8.034;2023-04-03T00:25:55;4.20;99.90
32877;DHT22;19226;51.600;8.034;2023-04-03T00:28:39;4.10;99.90
32877;DHT22;19226;51.600;8.034;2023-04-03T00:31:24;4.10;99.90
32877;DHT22;19226;51.600;8.034;2023-04-03T00:34:08;4.10;99.90
32877;DHT22;19226;51.600;8.034;2023-04-03T00:36:53;4.10;99.90
32877;DHT22;19226;51.600;8.034;2023-04-03T00:39:37;4.00;99.90
32877;DHT22;19226;51.600;8.034;2023-04-03T00:42:22;4.00;99.90
32877;DHT22;19226;51.600;8.034;2023-04-03T00:47:58;4.00;99.90
32877;DHT22;19226;51.600;8.034;2023-04-03T00:50:44;3.90;99.90
32877;DHT22;19226;51.600;8.034;2023-04-03T00:53:33;3.90;99.90
32877;DHT22;19226;51.600;8.034;2023-04-03T00:56:23;3.90;99.90
32877;DHT22;19226;51.600;8.034;2023-04-03T00:59:18;3.90;99.90
32877;DHT22;19226;51.600;8.034;2023-04-03T01:02:06;3.90;99.90
32877;DHT22;19226;51.600;8.034;2023-04-03T01:04:50;3.80;99.90
32877;DHT22;19226;51.600;8.034;2023-04-03T01:07:35;3.80;99.90
32877;DHT22;19226;51.600;8.034;2023-04-03T01:10:21;3.80;99.90
32877;DHT22;19226;51.600;8.034;2023-04-03T01:13:26;3.80;99.90
32877;DHT22;19226;51.600;8.034;2023-04-03T01:16:11;3.70;99.90
32877;DHT22;19226;51.600;8.034;2023-04-03T01:18:56;3.70;99.90
32877;DHT22;19226;51.600;8.034;2023-04-03T01:21:44;3.70;99.90
32877;DHT22;19226;51.600;8.034;2023-04-03T01:24:37;3.60;99.90
32877;DHT22;19226;51.600;8.034;2023-04-03T01:27:27;3.60;99.90
32877;DHT22;19226;51.600;8.034;2023-04-03T01:30:14;3.60;99.90
32877;DHT22;19226;51.600;8.034;2023-04-03T01:33:00;3.60;99.90
32877;DHT22;19226;51.600;8.034;2023-04-03T01:35:45;3.60;99.90
32877;DHT22;19226;51.600;8.034;2023-04-03T01:38:30;3.50;99.90
32877;DHT22;19226;51.600;8.034;2023-04-03T01:41:14;3.50;99.90
32877;DHT22;19226;51.600;8.034;2023-04-03T01:44:00;3.40;99.90
32877;DHT22;19226;51.600;8.034;2023-04-03T01:46:45;3.40;99.90
32877;DHT22;19226;51.600;8.034;2023-04-03T01:49:30;3.40;99.90
32877;DHT22;19226;51.600;8.034;2023-04-03T01:52:15;3.30;99.90
32877;DHT22;19226;51.600;8.034;2023-04-03T01:54:59;3.30;99.90
32877;DHT22;19226;51.600;8.034;2023-04-03T01:57:44;3.20;99.90
32877;DHT22;19226;51.600;8.034;2023-04-03T02:00:29;3.20;99.90
32877;DHT22;19226;51.600;8.034;2023-04-03T02:03:14;3.20;99.90
32877;DHT22;19226;51.600;8.034;2023-04-03T02:05:59;3.20;99.90
32877;DHT22;19226;51.600;8.034;2023-04-03T02:08:44;3.10;99.90
32877;DHT22;19226;51.600;8.034;2023-04-03T02:11:28;3.20;99.90
32877;DHT22;19226;51.600;8.034;2023-04-03T02:14:13;3.10;99.90
32877;DHT22;19226;51.600;8.034;2023-04-03T02:16:57;3.00;99.90
32877;DHT22;19226;51.600;8.034;2023-04-03T02:19:42;3.00;99.90
32877;DHT22;19226;51.600;8.034;2023-04-03T02:22:30;3.00;99.90
32877;DHT22;19226;51.600;8.034;2023-04-03T02:25:15;3.00;99.90
32877;DHT22;19226;51.600;8.034;2023-04-03T02:27:59;3.00;99.90
32877;DHT22;19226;51.600;8.034;2023-04-03T02:30:44;2.90;99.90
32877;DHT22;19226;51.600;8.034;2023-04-03T02:33:29;2.90;99.90
32877;DHT22;19226;51.600;8.034;2023-04-03T02:36:14;2.90;99.90
32877;DHT22;19226;51.600;8.034;2023-04-03T02:39:01;2.80;99.90
32877;DHT22;19226;51.600;8.034;2023-04-03T02:41:46;2.80;99.90
32877;DHT22;19226;51.600;8.034;2023-04-03T02:44:36;2.80;99.90
32877;DHT22;19226;51.600;8.034;2023-04-03T02:47:21;2.80;99.90
32877;DHT22;19226;51.600;8.034;2023-04-03T02:50:06;2.80;99.90
32877;DHT22;19226;51.600;8.034;2023-04-03T02:52:51;2.80;99.90
32877;DHT22;19226;51.600;8.034;2023-04-03T02:55:35;2.70;99.90
32877;DHT22;19226;51.600;8.034;2023-04-03T02:58:19;2.60;99.90
32877;DHT22;19226;51.600;8.034;2023-04-03T03:01:04;2.60;99.90
32877;DHT22;19226;51.600;8.034;2023-04-03T03:03:48;2.60;99.90
32877;DHT22;19226;51.600;8.034;2023-04-03T03:06:33;2.50;99.90
32877;DHT22;19226;51.600;8.034;2023-04-03T03:09:18;2.50;99.90
32877;DHT22;19226;51.600;8.034;2023-04-03T03:12:02;2.50;99.90
32877;DHT22;19226;51.600;8.034;2023-04-03T03:14:48;2.50;99.90
32877;DHT22;19226;51.600;8.034;2023-04-03T03:17:33;2.50;99.90
32877;DHT22;19226;51.600;8.034;2023-04-03T03:20:17;2.40;99.90
32877;DHT22;19226;51.600;8.034;2023-04-03T03:23:02;2.50;99.90
32877;DHT22;19226;51.600;8.034;2023-04-03T03:25:48;2.50;99.90
32877;DHT22;19226;51.600;8.034;2023-04-03T03:28:34;2.40;99.90
32877;DHT22;19226;51.600;8.034;2023-04-03T03:31:18;2.40;99.90
32877;DHT22;19226;51.600;8.034;2023-04-03T03:34:03;2.40;99.90
32877;DHT22;19226;51.600;8.034;2023-04-03T03:36:47;2.40;99.90
32877;DHT22;19226;51.600;8.034;2023-04-03T03:39:32;2.30;99.90
32877;DHT22;19226;51.600;8.034;2023-04-03T03:42:17;2.30;99.90
32877;DHT22;19226;51.600;8.034;2023-04-03T03:45:02;2.20;99.90
32877;DHT22;19226;51.600;8.034;2023-04-03T03:47:46;2.20;99.90
32877;DHT22;19226;51.600;8.034;2023-04-03T03:50:31;2.20;99.90
32877;DHT22;19226;51.600;8.034;2023-04-03T03:53:15;2.20;99.90
32877;DHT22;19226;51.600;8.034;2023-04-03T03:56:00;2.10;99.90
32877;DHT22;19226;51.600;8.034;2023-04-03T03:58:47;2.10;99.90
32877;DHT22;19226;51.600;8.034;2023-04-03T04:01:33;2.10;99.90
32877;DHT22;19226;51.600;8.034;2023-04-03T04:04:18;2.00;99.90
32877;DHT22;19226;51.600;8.034;2023-04-03T04:07:03;2.00;99.90
32877;DHT22;19226;51.600;8.034;2023-04-03T04:09:48;2.00;99.90
32877;DHT22;19226;51.600;8.034;2023-04-03T04:12:33;1.90;99.90
32877;DHT22;19226;51.600;8.034;2023-04-03T04:15:19;1.90;99.90
32877;DHT22;19226;51.600;8.034;2023-04-03T04:18:06;1.90;99.90
32877;DHT22;19226;51.600;8.034;2023-04-03T04:20:51;1.90;99.90
32877;DHT22;19226;51.600;8.034;2023-04-03T04:23:36;1.90;99.90
32877;DHT22;19226;51.600;8.034;2023-04-03T04:26:21;1.80;99.90
32877;DHT22;19226;51.600;8.034;2023-04-03T04:29:06;1.80;99.90
32877;DHT22;19226;51.600;8.034;2023-04-03T04:31:52;1.80;99.90
32877;DHT22;19226;51.600;8.034;2023-04-03T04:34:39;1.80;99.90
32877;DHT22;19226;51.600;8.034;2023-04-03T04:37:23;1.70;99.90
32877;DHT22;19226;51.600;8.034;2023-04-03T04:40:08;1.70;99.90
32877;DHT22;19226;51.600;8.034;2023-04-03T04:42:53;1.70;99.90
32877;DHT22;19226;51.600;8.034;2023-04-03T04:45:38;1.70;99.90
32877;DHT22;19226;51.600;8.034;2023-04-03T04:48:22;1.60;99.90
32877;DHT22;19226;51.600;8.034;2023-04-03T04:51:07;1.60;99.90
32877;DHT22;19226;51.600;8.034;2023-04-03T04:53:54;1.60;99.90
32877;DHT22;19226;51.600;8.034;2023-04-03T04:56:39;1.60;99.90
32877;DHT22;19226;51.600;8.034;2023-04-03T04:59:25;1.60;99.90
32877;DHT22;19226;51.600;8.034;2023-04-03T05:02:12;1.50;99.90
32877;DHT22;19226;51.600;8.034;2023-04-03T05:04:58;1.50;99.90
32877;DHT22;19226;51.600;8.034;2023-04-03T05:07:46;1.40;99.90
32877;DHT22;19226;51.600;8.034;2023-04-03T05:10:31;1.40;99.90
32877;DHT22;19226;51.600;8.034;2023-04-03T05:13:16;1.40;99.90
32877;DHT22;19226;51.600;8.034;2023-04-03T05:16:02;1.40;99.90
32877;DHT22;19226;51.600;8.034;2023-04-03T05:18:47;1.30;99.90
32877;DHT22;19226;51.600;8.034;2023-04-03T05:21:36;1.30;99.90
32877;DHT22;19226;51.600;8.034;2023-04-03T05:24:26;1.30;99.90
32877;DHT22;19226;51.600;8.034;2023-04-03T05:27:10;1.30;99.90
32877;DHT22;19226;51.600;8.034;2023-04-03T05:29:58;1.30;99.90
32877;DHT22;19226;51.600;8.034;2023-04-03T05:32:44;1.20;99.90
32877;DHT22;19226;51.600;8.034;2023-04-03T05:35:54;1.20;99.90
32877;DHT22;19226;51.600;8.034;2023-04-03T05:38:43;1.20;99.90
32877;DHT22;19226;51.600;8.034;2023-04-03T05:41:28;1.20;99.90
32877;DHT22;19226;51.600;8.034;2023-04-03T05:44:13;1.20;99.90
32877;DHT22;19226;51.600;8.034;2023-04-03T05:47:01;1.20;99.90
32877;DHT22;19226;51.600;8.034;2023-04-03T05:49:45;1.20;99.90
32877;DHT22;19226;51.600;8.034;2023-04-03T05:52:37;1.20;99.90
32877;DHT22;19226;51.600;8.034;2023-04-03T05:55:23;1.20;99.90
32877;DHT22;19226;51.600;8.034;2023-04-03T05:58:07;1.20;99.90
32877;DHT22;19226;51.600;8.034;2023-04-03T06:00:52;1.30;99.90
32877;DHT22;19226;51.600;8.034;2023-04-03T06:03:36;1.30;99.90
32877;DHT22;19226;51.600;8.034;2023-04-03T06:06:21;1.40;99.90
32877;DHT22;19226;51.600;8.034;2023-04-03T06:09:06;1.40;99.90
32877;DHT22;19226;51.600;8.034;2023-04-03T06:11:50;1.40;99.90
32877;DHT22;19226;51.600;8.034;2023-04-03T06:14:41;1.50;99.90
32877;DHT22;19226;51.600;8.034;2023-04-03T06:17:26;1.50;99.90
32877;DHT22;19226;51.600;8.034;2023-04-03T06:20:12;1.60;99.90
32877;DHT22;19226;51.600;8.034;2023-04-03T06:22:57;1.60;99.90
32877;DHT22;19226;51.600;8.034;2023-04-03T06:25:42;1.70;99.90
32877;DHT22;19226;51.600;8.034;2023-04-03T06:28:26;1.80;99.90
32877;DHT22;19226;51.600;8.034;2023-04-03T06:31:11;1.80;99.90
32877;DHT22;19226;51.600;8.034;2023-04-03T06:33:55;1.80;99.90
32877;DHT22;19226;51.600;8.034;2023-04-03T06:36:41;1.80;99.90
32877;DHT22;19226;51.600;8.034;2023-04-03T06:39:26;1.90;99.90
32877;DHT22;19226;51.600;8.034;2023-04-03T06:42:11;2.00;99.90
32877;DHT22;19226;51.600;8.034;2023-04-03T06:45:05;2.10;99.90
32877;DHT22;19226;51.600;8.034;2023-04-03T06:47:50;2.10;99.90
32877;DHT22;19226;51.600;8.034;2023-04-03T06:50:35;2.20;99.90
32877;DHT22;19226;51.600;8.034;2023-04-03T06:53:19;2.20;99.90
32877;DHT22;19226;51.600;8.034;2023-04-03T06:56:04;2.30;99.90
32877;DHT22;19226;51.600;8.034;2023-04-03T06:58:49;2.40;99.90
32877;DHT22;19226;51.600;8.034;2023-04-03T07:01:35;2.40;99.90
32877;DHT22;19226;51.600;8.034;2023-04-03T07:04:19;2.60;99.90
32877;DHT22;19226;51.600;8.034;2023-04-03T07:07:07;2.70;99.90
32877;DHT22;19226;51.600;8.034;2023-04-03T07:09:51;2.70;99.90
32877;DHT22;19226;51.600;8.034;2023-04-03T07:12:36;2.80;99.90
32877;DHT22;19226;51.600;8.034;2023-04-03T07:15:22;2.90;99.90
32877;DHT22;19226;51.600;8.034;2023-04-03T07:18:06;3.00;99.90
32877;DHT22;19226;51.600;8.034;2023-04-03T07:20:51;3.10;99.90
32877;DHT22;19226;51.600;8.034;2023-04-03T07:23:36;3.10;99.90
32877;DHT22;19226;51.600;8.034;2023-04-03T07:26:21;3.20;99.90
32877;DHT22;19226;51.600;8.034;2023-04-03T07:29:06;3.20;99.90
32877;DHT22;19226;51.600;8.034;2023-04-03T07:31:50;3.30;99.90
32877;DHT22;19226;51.600;8.034;2023-04-03T07:34:35;3.40;99.90
32877;DHT22;19226;51.600;8.034;2023-04-03T07:37:20;3.40;99.90
32877;DHT22;19226;51.600;8.034;2023-04-03T07:40:05;3.50;99.90
32877;DHT22;19226;51.600;8.034;2023-04-03T07:42:50;3.60;99.90
32877;DHT22;19226;51.600;8.034;2023-04-03T07:45:35;3.70;99.90
32877;DHT22;19226;51.600;8.034;2023-04-03T07:48:21;3.80;99.90
32877;DHT22;19226;51.600;8.034;2023-04-03T07:51:06;3.80;99.90
32877;DHT22;19226;51.600;8.034;2023-04-03T07:53:50;3.90;99.90
32877;DHT22;19226;51.600;8.034;2023-04-03T07:56:35;3.90;99.90
32877;DHT22;19226;51.600;8.034;2023-04-03T07:59:20;4.10;99.90
32877;DHT22;19226;51.600;8.034;2023-04-03T08:02:05;4.20;99.90
32877;DHT22;19226;51.600;8.034;2023-04-03T08:04:49;4.30;99.90
32877;DHT22;19226;51.600;8.034;2023-04-03T08:07:36;4.40;99.90
32877;DHT22;19226;51.600;8.034;2023-04-03T08:10:20;4.50;99.90
32877;DHT22;19226;51.600;8.034;2023-04-03T08:13:05;4.50;99.90
32877;DHT22;19226;51.600;8.034;2023-04-03T08:15:49;4.50;99.90
32877;DHT22;19226;51.600;8.034;2023-04-03T08:18:34;4.50;99.90
32877;DHT22;19226;51.600;8.034;2023-04-03T08:21:19;4.60;99.90
32877;DHT22;19226;51.600;8.034;2023-04-03T08:24:04;4.70;99.90
32877;DHT22;19226;51.600;8.034;2023-04-03T08:26:48;4.90;99.90
32877;DHT22;19226;51.600;8.034;2023-04-03T08:29:33;5.00;99.90
32877;DHT22;19226;51.600;8.034;2023-04-03T08:32:18;5.10;99.90
32877;DHT22;19226;51.600;8.034;2023-04-03T08:35:04;5.20;99.90
32877;DHT22;19226;51.600;8.034;2023-04-03T08:37:48;5.30;99.90
32877;DHT22;19226;51.600;8.034;2023-04-03T08:40:33;5.40;99.90
32877;DHT22;19226;51.600;8.034;2023-04-03T08:43:53;5.60;99.90
32877;DHT22;19226;51.600;8.034;2023-04-03T08:46:47;5.70;99.90
32877;DHT22;19226;51.600;8.034;2023-04-03T08:49:40;5.70;99.90
32877;DHT22;19226;51.600;8.034;2023-04-03T08:52:55;5.80;99.90
32877;DHT22;19226;51.600;8.034;2023-04-03T08:55:50;5.90;99.90
32877;DHT22;19226;51.600;8.034;2023-04-03T08:58:50;6.00;99.90
32877;DHT22;19226;51.600;8.034;2023-04-03T09:01:39;6.10;99.90
32877;DHT22;19226;51.600;8.034;2023-04-03T09:04:25;6.30;99.90
32877;DHT22;19226;51.600;8.034;2023-04-03T09:07:20;6.30;99.90
32877;DHT22;19226;51.600;8.034;2023-04-03T09:10:06;6.40;99.90
32877;DHT22;19226;51.600;8.034;2023-04-03T09:16:25;6.60;99.90
32877;DHT22;19226;51.600;8.034;2023-04-03T09:22:24;6.80;99.90
32877;DHT22;19226;51.600;8.034;2023-04-03T09:25:17;6.90;99.90
32877;DHT22;19226;51.600;8.034;2023-04-03T09:28:03;7.00;99.90
32877;DHT22;19226;51.600;8.034;2023-04-03T09:30:48;7.10;99.90
32877;DHT22;19226;51.600;8.034;2023-04-03T09:33:34;7.20;99.90
32877;DHT22;19226;51.600;8.034;2023-04-03T09:36:45;7.40;99.90
32877;DHT22;19226;51.600;8.034;2023-04-03T09:39:30;7.40;99.90
32877;DHT22;19226;51.600;8.034;2023-04-03T09:42:24;7.50;99.90
32877;DHT22;19226;51.600;8.034;2023-04-03T09:45:23;7.50;99.90
32877;DHT22;19226;51.600;8.034;2023-04-03T09:48:17;7.60;99.90
32877;DHT22;19226;51.600;8.034;2023-04-03T09:51:02;7.60;99.90
32877;DHT22;19226;51.600;8.034;2023-04-03T09:53:47;7.70;99.90
32877;DHT22;19226;51.600;8.034;2023-04-03T09:56:31;7.80;99.90
32877;DHT22;19226;51.600;8.034;2023-04-03T09:59:16;7.90;99.90
32877;DHT22;19226;51.600;8.034;2023-04-03T10:04:55;8.00;99.90
32877;DHT22;19226;51.600;8.034;2023-04-03T10:07:41;8.00;99.90
32877;DHT22;19226;51.600;8.034;2023-04-03T10:10:25;8.10;99.90
32877;DHT22;19226;51.600;8.034;2023-04-03T10:13:18;8.30;99.90
32877;DHT22;19226;51.600;8.034;2023-04-03T10:16:15;8.50;99.90
32877;DHT22;19226;51.600;8.034;2023-04-03T10:22:19;8.50;99.90
32877;DHT22;19226;51.600;8.034;2023-04-03T10:28:08;8.50;99.90
32877;DHT22;19226;51.600;8.034;2023-04-03T10:34:05;8.60;99.90
32877;DHT22;19226;51.600;8.034;2023-04-03T10:40:20;8.80;99.90
32877;DHT22;19226;51.600;8.034;2023-04-03T10:46:11;9.00;99.90
32877;DHT22;19226;51.600;8.034;2023-04-03T10:51:58;9.20;99.90
32877;DHT22;19226;51.600;8.034;2023-04-03T10:57:55;9.40;99.90
32877;DHT22;19226;51.600;8.034;2023-04-03T11:00:48;9.50;99.90
32877;DHT22;19226;51.600;8.034;2023-04-03T11:03:36;9.70;99.90
32877;DHT22;19226;51.600;8.034;2023-04-03T11:06:36;9.70;99.90
32877;DHT22;19226;51.600;8.034;2023-04-03T11:09:32;9.50;99.90
32877;DHT22;19226;51.600;8.034;2023-04-03T11:12:44;9.30;99.90
32877;DHT22;19226;51.600;8.034;2023-04-03T11:15:32;9.20;99.90
32877;DHT22;19226;51.600;8.034;2023-04-03T11:18:21;9.10;99.90
32877;DHT22;19226;51.600;8.034;2023-04-03T11:21:16;9.30;99.90
32877;DHT22;19226;51.600;8.034;2023-04-03T11:24:05;9.30;99.90
32877;DHT22;19226;51.600;8.034;2023-04-03T11:26:56;9.50;99.90
32877;DHT22;19226;51.600;8.034;2023-04-03T11:29:43;9.70;99.90
32877;DHT22;19226;51.600;8.034;2023-04-03T11:32:49;9.80;99.90
32877;DHT22;19226;51.600;8.034;2023-04-03T11:35:41;10.00;99.90
32877;DHT22;19226;51.600;8.034;2023-04-03T11:38:33;9.90;99.90
32877;DHT22;19226;51.600;8.034;2023-04-03T11:41:29;10.00;99.90
32877;DHT22;19226;51.600;8.034;2023-04-03T11:44:35;10.00;99.90
32877;DHT22;19226;51.600;8.034;2023-04-03T11:47:50;10.10;99.90
32877;DHT22;19226;51.600;8.034;2023-04-03T11:53:30;10.30;99.90
32877;DHT22;19226;51.600;8.034;2023-04-03T12:01:58;10.30;99.90
32877;DHT22;19226;51.600;8.034;2023-04-03T12:08:26;10.50;99.90
32877;DHT22;19226;51.600;8.034;2023-04-03T12:19:36;10.90;99.90
32877;DHT22;19226;51.600;8.034;2023-04-03T12:22:21;11.00;99.90
32877;DHT22;19226;51.600;8.034;2023-04-03T12:25:41;10.90;99.90
32877;DHT22;19226;51.600;8.034;2023-04-03T12:28:37;10.70;98.70
32877;DHT22;19226;51.600;8.034;2023-04-03T12:31:25;10.50;99.20
32877;DHT22;19226;51.600;8.034;2023-04-03T12:47:02;10.20;99.90
32877;DHT22;19226;51.600;8.034;2023-04-03T12:49:52;10.10;99.90
32877;DHT22;19226;51.600;8.034;2023-04-03T12:52:41;10.10;99.90
32877;DHT22;19226;51.600;8.034;2023-04-03T12:55:26;10.10;99.90
32877;DHT22;19226;51.600;8.034;2023-04-03T12:58:25;10.20;99.90
32877;DHT22;19226;51.600;8.034;2023-04-03T13:01:13;10.30;99.90
32877;DHT22;19226;51.600;8.034;2023-04-03T13:03:58;10.40;99.90
32877;DHT22;19226;51.600;8.034;2023-04-03T13:06:44;10.60;99.90
32877;DHT22;19226;51.600;8.034;2023-04-03T13:09:30;10.70;99.90
32877;DHT22;19226;51.600;8.034;2023-04-03T13:12:15;10.60;99.10
32877;DHT22;19226;51.600;8.034;2023-04-03T13:15:41;10.70;99.90
32877;DHT22;19226;51.600;8.034;2023-04-03T13:18:32;10.90;99.90
32877;DHT22;19226;51.600;8.034;2023-04-03T13:21:28;10.80;99.70
32877;DHT22;19226;51.600;8.034;2023-04-03T13:24:14;10.70;99.90
32877;DHT22;19226;51.600;8.034;2023-04-03T13:26:59;10.50;98.60
32877;DHT22;19226;51.600;8.034;2023-04-03T13:29:50;10.30;99.90
32877;DHT22;19226;51.600;8.034;2023-04-03T13:32:35;10.40;99.90
32877;DHT22;19226;51.600;8.034;2023-04-03T13:41:21;10.50;99.90
32877;DHT22;19226;51.600;8.034;2023-04-03T13:50:23;10.80;99.90
32877;DHT22;19226;51.600;8.034;2023-04-03T13:53:13;10.80;99.90
32877;DHT22;19226;51.600;8.034;2023-04-03T13:56:09;10.80;99.90
32877;DHT22;19226;51.600;8.034;2023-04-03T14:04:51;10.80;97.60
32877;DHT22;19226;51.600;8.034;2023-04-03T14:07:40;10.80;98.40
32877;DHT22;19226;51.600;8.034;2023-04-03T14:10:24;10.80;99.70
32877;DHT22;19226;51.600;8.034;2023-04-03T14:13:12;10.80;99.90
32877;DHT22;19226;51.600;8.034;2023-04-03T14:16:00;10.70;99.90
32877;DHT22;19226;51.600;8.034;2023-04-03T14:18:46;10.70;99.90
32877;DHT22;19226;51.600;8.034;2023-04-03T14:21:33;10.60;98.60
32877;DHT22;19226;51.600;8.034;2023-04-03T14:24:18;10.60;99.90
32877;DHT22;19226;51.600;8.034;2023-04-03T14:27:08;10.60;99.90
32877;DHT22;19226;51.600;8.034;2023-04-03T14:29:58;10.50;99.30
32877;DHT22;19226;51.600;8.034;2023-04-03T14:32:44;10.60;99.90
32877;DHT22;19226;51.600;8.034;2023-04-03T14:35:29;10.70;99.90
32877;DHT22;19226;51.600;8.034;2023-04-03T14:38:32;10.80;99.00
32877;DHT22;19226;51.600;8.034;2023-04-03T14:41:19;10.80;97.80
32877;DHT22;19226;51.600;8.034;2023-04-03T14:44:04;10.90;99.90
32877;DHT22;19226;51.600;8.034;2023-04-03T14:46:49;11.00;98.80
32877;DHT22;19226;51.600;8.034;2023-04-03T14:49:35;11.10;99.80
32877;DHT22;19226;51.600;8.034;2023-04-03T14:52:23;11.00;99.10
32877;DHT22;19226;51.600;8.034;2023-04-03T14:55:07;10.90;99.10
32877;DHT22;19226;51.600;8.034;2023-04-03T14:57:53;10.90;99.10
32877;DHT22;19226;51.600;8.034;2023-04-03T15:00:38;11.10;99.50
32877;DHT22;19226;51.600;8.034;2023-04-03T15:03:23;11.10;96.30
32877;DHT22;19226;51.600;8.034;2023-04-03T15:06:12;11.20;97.70
32877;DHT22;19226;51.600;8.034;2023-04-03T15:08:56;11.20;97.70
32877;DHT22;19226;51.600;8.034;2023-04-03T15:11:41;11.40;99.90
32877;DHT22;19226;51.600;8.034;2023-04-03T15:14:28;11.70;99.70
32877;DHT22;19226;51.600;8.034;2023-04-03T15:17:21;11.70;96.00
32877;DHT22;19226;51.600;8.034;2023-04-03T15:20:21;11.50;96.70
32877;DHT22;19226;51.600;8.034;2023-04-03T15:23:06;11.20;97.30
32877;DHT22;19226;51.600;8.034;2023-04-03T15:25:50;11.10;97.10
32877;DHT22;19226;51.600;8.034;2023-04-03T15:28:37;11.10;95.80
32877;DHT22;19226;51.600;8.034;2023-04-03T15:31:23;11.20;96.90
32877;DHT22;19226;51.600;8.034;2023-04-03T15:34:08;11.30;96.60
32877;DHT22;19226;51.600;8.034;2023-04-03T15:36:52;11.20;97.60
32877;DHT22;19226;51.600;8.034;2023-04-03T15:39:37;11.20;98.00
32877;DHT22;19226;51.600;8.034;2023-04-03T15:42:22;11.10;97.40
32877;DHT22;19226;51.600;8.034;2023-04-03T15:45:07;11.20;97.60
32877;DHT22;19226;51.600;8.034;2023-04-03T15:47:52;11.00;97.00
32877;DHT22;19226;51.600;8.034;2023-04-03T15:50:36;11.00;97.10
32877;DHT22;19226;51.600;8.034;2023-04-03T15:53:21;11.00;96.40
32877;DHT22;19226;51.600;8.034;2023-04-03T15:56:05;11.00;97.60
32877;DHT22;19226;51.600;8.034;2023-04-03T15:58:52;11.00;97.60
32877;DHT22;19226;51.600;8.034;2023-04-03T16:01:38;10.90;97.00
32877;DHT22;19226;51.600;8.034;2023-04-03T16:04:23;10.80;97.20
32877;DHT22;19226;51.600;8.034;2023-04-03T16:07:08;10.80;97.60
32877;DHT22;19226;51.600;8.034;2023-04-03T16:09:52;10.80;96.30
32877;DHT22;19226;51.600;8.034;2023-04-03T16:12:37;10.90;98.10
32877;DHT22;19226;51.600;8.034;2023-04-03T16:15:23;11.00;96.80
32877;DHT22;19226;51.600;8.034;2023-04-03T16:18:08;11.20;97.50
32877;DHT22;19226;51.600;8.034;2023-04-03T16:20:53;11.30;96.40
32877;DHT22;19226;51.600;8.034;2023-04-03T16:23:38;11.20;95.30
32877;DHT22;19226;51.600;8.034;2023-04-03T16:26:22;11.00;95.70
32877;DHT22;19226;51.600;8.034;2023-04-03T16:29:07;10.80;95.70
32877;DHT22;19226;51.600;8.034;2023-04-03T16:31:53;10.60;96.10
32877;DHT22;19226;51.600;8.034;2023-04-03T16:34:37;10.70;96.10
32877;DHT22;19226;51.600;8.034;2023-04-03T16:37:22;10.80;97.30
32877;DHT22;19226;51.600;8.034;2023-04-03T16:40:08;11.00;98.00
32877;DHT22;19226;51.600;8.034;2023-04-03T16:42:52;11.10;97.40
32877;DHT22;19226;51.600;8.034;2023-04-03T16:45:37;11.10;97.40
32877;DHT22;19226;51.600;8.034;2023-04-03T16:48:22;11.00;96.90
32877;DHT22;19226;51.600;8.034;2023-04-03T16:51:06;11.00;97.50
32877;DHT22;19226;51.600;8.034;2023-04-03T16:53:51;10.90;95.60
32877;DHT22;19226;51.600;8.034;2023-04-03T16:56:36;10.70;95.50
32877;DHT22;19226;51.600;8.034;2023-04-03T16:59:23;10.60;96.00
32877;DHT22;19226;51.600;8.034;2023-04-03T17:02:07;10.50;96.10
32877;DHT22;19226;51.600;8.034;2023-04-03T17:04:54;10.20;97.50
32877;DHT22;19226;51.600;8.034;2023-04-03T17:07:39;10.10;98.80
32877;DHT22;19226;51.600;8.034;2023-04-03T17:10:24;10.10;99.20
32877;DHT22;19226;51.600;8.034;2023-04-03T17:13:08;10.00;99.60
32877;DHT22;19226;51.600;8.034;2023-04-03T17:15:53;9.90;99.90
32877;DHT22;19226;51.600;8.034;2023-04-03T17:18:37;9.70;99.90
32877;DHT22;19226;51.600;8.034;2023-04-03T17:21:23;9.50;99.90
32877;DHT22;19226;51.600;8.034;2023-04-03T17:24:08;9.40;99.90
32877;DHT22;19226;51.600;8.034;2023-04-03T17:26:56;9.30;99.90
32877;DHT22;19226;51.600;8.034;2023-04-03T17:29:40;9.20;99.90
32877;DHT22;19226;51.600;8.034;2023-04-03T17:32:25;9.10;99.90
32877;DHT22;19226;51.600;8.034;2023-04-03T17:35:10;9.00;99.90
32877;DHT22;19226;51.600;8.034;2023-04-03T17:37:55;8.90;99.90
32877;DHT22;19226;51.600;8.034;2023-04-03T17:40:39;8.90;99.90
32877;DHT22;19226;51.600;8.034;2023-04-03T17:43:24;8.80;99.90
32877;DHT22;19226;51.600;8.034;2023-04-03T17:46:10;8.80;99.90
32877;DHT22;19226;51.600;8.034;2023-04-03T17:48:55;8.70;99.90
32877;DHT22;19226;51.600;8.034;2023-04-03T17:51:43;8.70;99.90
32877;DHT22;19226;51.600;8.034;2023-04-03T17:54:28;8.60;99.90
32877;DHT22;19226;51.600;8.034;2023-04-03T17:57:13;8.50;99.90
32877;DHT22;19226;51.600;8.034;2023-04-03T17:59:57;8.40;99.90
32877;DHT22;19226;51.600;8.034;2023-04-03T18:02:42;8.30;99.90
32877;DHT22;19226;51.600;8.034;2023-04-03T18:05:27;8.30;99.90
32877;DHT22;19226;51.600;8.034;2023-04-03T18:08:12;8.10;99.90
32877;DHT22;19226;51.600;8.034;2023-04-03T18:10:57;8.10;99.90
32877;DHT22;19226;51.600;8.034;2023-04-03T18:13:42;8.00;99.90
32877;DHT22;19226;51.600;8.034;2023-04-03T18:16:27;7.90;99.90
32877;DHT22;19226;51.600;8.034;2023-04-03T18:19:12;7.90;99.90
32877;DHT22;19226;51.600;8.034;2023-04-03T18:22:01;7.90;99.90
32877;DHT22;19226;51.600;8.034;2023-04-03T18:24:47;7.80;99.90
32877;DHT22;19226;51.600;8.034;2023-04-03T18:27:32;7.80;99.90
32877;DHT22;19226;51.600;8.034;2023-04-03T18:30:17;7.70;99.90
32877;DHT22;19226;51.600;8.034;2023-04-03T18:33:01;7.60;99.90
32877;DHT22;19226;51.600;8.034;2023-04-03T18:35:47;7.50;99.90
32877;DHT22;19226;51.600;8.034;2023-04-03T18:38:32;7.50;99.90
32877;DHT22;19226;51.600;8.034;2023-04-03T18:41:18;7.40;99.90
32877;DHT22;19226;51.600;8.034;2023-04-03T18:44:09;7.30;99.90
32877;DHT22;19226;51.600;8.034;2023-04-03T18:46:55;7.20;99.90
32877;DHT22;19226;51.600;8.034;2023-04-03T18:49:43;7.10;99.90
32877;DHT22;19226;51.600;8.034;2023-04-03T18:52:28;7.00;99.90
32877;DHT22;19226;51.600;8.034;2023-04-03T18:55:12;7.00;99.90
32877;DHT22;19226;51.600;8.034;2023-04-03T18:57:58;6.90;99.90
32877;DHT22;19226;51.600;8.034;2023-04-03T19:00:43;6.90;99.90
32877;DHT22;19226;51.600;8.034;2023-04-03T19:03:29;6.80;99.90
32877;DHT22;19226;51.600;8.034;2023-04-03T19:06:14;6.80;99.90
32877;DHT22;19226;51.600;8.034;2023-04-03T19:08:59;6.70;99.90
32877;DHT22;19226;51.600;8.034;2023-04-03T19:11:44;6.70;99.90
32877;DHT22;19226;51.600;8.034;2023-04-03T19:14:28;6.60;99.90